.
WxDataArchive / Data Records for 2006-02-11
2006-02-10 February 2006 2006-02-12

Data Records for Saturday, 11 February 2006

Time	Temp	Chill	HIndex	Humid	Dewpt	 Wind 	HiWind	WindDir	Rain 	Barom 
-----	----	-----	------	-----	-----	------	------	-------	-----	----- 
00:00	31.5	31.5	31.5	81	26.4	0	0	---	0.00	30.043 
00:05	31.3	31.3	31.3	81	26.2	0	0	---	0.00	30.043 
00:10	31.3	31.3	31.3	81	26.2	0	0	---	0.00	30.043 
00:15	31.2	31.2	31.2	81	26.1	0	0	---	0.00	30.044 
00:20	31.0	31.0	31.0	81	25.9	0	0	---	0.00	30.044 
00:25	31.0	31.0	31.0	82	26.2	0	0	---	0.00	30.044 
00:30	30.9	30.9	30.9	82	26.1	0	0	---	0.00	30.045 
00:35	30.7	30.7	30.7	83	26.2	0	0	---	0.00	30.045 
00:40	30.6	30.6	30.6	83	26.1	0	0	---	0.00	30.045 
00:45	30.6	30.6	30.6	83	26.1	0	0	---	0.00	30.044 
00:50	30.4	30.4	30.4	83	25.9	0	0	---	0.00	30.044 
00:55	30.3	30.3	30.3	84	26.1	0	0	---	0.00	30.044 
01:00	30.3	30.3	30.3	84	26.1	0	0	---	0.00	30.042 
01:05	30.3	30.3	30.3	84	26.1	0	0	---	0.00	30.042 
01:10	30.3	30.3	30.3	84	26.1	0	0	---	0.00	30.042 
01:15	30.1	30.1	30.1	84	25.9	0	0	---	0.00	30.036 
01:20	30.1	30.1	30.1	84	25.9	0	0	---	0.00	30.036 
01:25	30.0	30.0	30.0	84	25.8	0	0	---	0.00	30.036 
01:30	29.8	29.8	29.8	85	25.9	0	0	---	0.00	30.033 
01:35	29.7	29.7	29.7	85	25.8	0	0	---	0.00	30.033 
01:40	29.5	29.5	29.5	85	25.6	0	0	---	0.00	30.033 
01:45	29.4	29.4	29.4	86	25.7	0	1	248	0.00	30.029 
01:50	29.3	29.3	29.3	86	25.6	0	0	---	0.00	30.029 
01:55	29.1	29.1	29.1	86	25.4	0	0	---	0.00	30.029 
02:00	29.1	29.1	29.1	87	25.7	0	1	248	0.00	30.032 
02:05	29.0	29.0	29.0	87	25.6	0	0	---	0.00	30.032 
02:10	29.0	29.0	29.0	87	25.6	0	0	---	0.00	30.032 
02:15	28.8	28.8	28.8	87	25.4	0	0	---	0.00	30.034 
02:20	28.8	28.8	28.8	87	25.4	0	0	---	0.00	30.034 
02:25	28.7	28.7	28.7	88	25.6	0	0	---	0.00	30.034 
02:30	28.7	28.7	28.7	88	25.6	0	0	---	0.00	30.029 
02:35	28.7	28.7	28.7	88	25.6	0	0	---	0.00	30.029 
02:40	28.5	28.5	28.5	88	25.4	0	0	---	0.00	30.029 
02:45	28.5	28.5	28.5	88	25.4	0	0	---	0.00	30.029 
02:50	28.5	28.5	28.5	88	25.4	0	0	---	0.00	30.029 
02:55	28.4	28.4	28.4	88	25.3	0	0	---	0.00	30.029 
03:00	28.4	28.4	28.4	88	25.3	0	0	---	0.00	30.033 
03:05	28.2	28.2	28.2	88	25.1	0	0	---	0.00	30.033 
03:10	28.2	28.2	28.2	89	25.4	0	0	---	0.00	30.033 
03:15	28.4	28.4	28.4	89	25.6	0	0	---	0.00	30.029 
03:20	28.4	28.4	28.4	89	25.6	0	0	---	0.00	30.029 
03:25	28.4	28.4	28.4	90	25.8	0	0	---	0.00	30.029 
03:30	28.5	28.5	28.5	90	25.9	0	0	---	0.00	30.021 
03:35	28.7	28.7	28.7	90	26.1	0	1	248	0.00	30.021 
03:40	28.8	28.8	28.8	90	26.2	0	0	---	0.00	30.021 
03:45	28.8	28.8	28.8	90	26.2	0	0	---	0.00	30.017 
03:50	28.8	28.8	28.8	90	26.2	0	0	---	0.00	30.017 
03:55	28.8	28.8	28.8	90	26.2	0	0	---	0.00	30.017 
04:00	28.8	28.8	28.8	90	26.2	0	0	---	0.00	30.013 
04:05	28.8	28.8	28.8	90	26.2	0	0	---	0.00	30.013 
04:10	28.8	28.8	28.8	90	26.2	0	0	---	0.00	30.013 
04:15	29.0	29.0	29.0	91	26.7	0	0	---	0.00	30.012 
04:20	29.0	29.0	29.0	91	26.7	0	0	---	0.00	30.012 
04:25	29.0	29.0	29.0	91	26.7	0	0	---	0.00	30.012 
04:30	29.1	29.1	29.1	91	26.8	0	1	248	0.00	30.012 
04:35	29.1	29.1	29.1	91	26.8	0	0	---	0.00	30.012 
04:40	29.3	29.3	29.3	91	27.0	0	0	---	0.00	30.012 
04:45	29.3	29.3	29.3	92	27.3	0	1	248	0.00	30.016 
04:50	29.3	29.3	29.3	91	27.0	0	1	248	0.00	30.016 
04:55	29.3	29.3	29.3	91	27.0	0	0	---	0.00	30.016 
05:00	29.1	29.1	29.1	91	26.8	0	0	---	0.00	30.011 
05:05	29.1	29.1	29.1	91	26.8	0	0	---	0.00	30.011 
05:10	29.0	29.0	29.0	90	26.4	0	0	---	0.00	30.011 
05:15	29.0	29.0	29.0	90	26.4	0	0	---	0.00	30.014 
05:20	29.0	29.0	29.0	90	26.4	0	0	---	0.00	30.014 
05:25	28.8	28.8	28.8	90	26.2	0	0	---	0.00	30.014 
05:30	28.8	28.8	28.8	90	26.2	0	0	---	0.00	30.021 
05:35	28.8	28.8	28.8	90	26.2	0	0	---	0.00	30.021 
05:40	28.8	28.8	28.8	89	26.0	0	0	---	0.00	30.021 
05:45	28.8	28.8	28.8	89	26.0	0	1	248	0.00	30.013 
05:50	29.0	29.0	29.0	88	25.9	0	1	248	0.00	30.013 
05:55	29.0	29.0	29.0	88	25.9	0	2	248	0.00	30.013 
06:00	28.8	28.8	28.8	88	25.7	0	2	248	0.00	30.011 
06:05	28.8	28.8	28.8	88	25.7	0	1	248	0.00	30.011 
06:10	28.7	28.7	28.7	88	25.6	0	1	248	0.00	30.011 
06:15	28.7	28.7	28.7	88	25.6	0	2	248	0.00	30.012 
06:20	28.5	28.5	28.5	88	25.4	0	1	248	0.00	30.012 
06:25	28.4	28.4	28.4	88	25.3	0	1	248	0.00	30.012 
06:30	28.2	28.2	28.2	88	25.1	0	1	248	0.00	30.015 
06:35	28.1	28.1	28.1	88	25.0	0	1	248	0.00	30.015 
06:40	27.9	27.9	27.9	88	24.8	0	1	248	0.00	30.015 
06:45	27.8	27.8	27.8	88	24.7	0	1	248	0.00	30.014 
06:50	27.6	27.6	27.6	88	24.5	0	0	---	0.00	30.014 
06:55	27.6	27.6	27.6	89	24.8	0	0	---	0.00	30.014 
07:00	27.5	27.5	27.5	89	24.7	0	0	---	0.00	30.014 
07:05	27.3	27.3	27.3	89	24.5	0	1	248	0.00	30.014 
07:10	27.3	27.3	27.3	89	24.5	0	1	248	0.00	30.014 
07:15	27.3	27.3	27.3	90	24.8	0	1	248	0.00	30.009 
07:20	27.5	27.5	27.5	90	25.0	0	2	338	0.00	30.009 
07:25	27.5	27.5	27.5	90	25.0	0	1	338	0.00	30.009 
07:30	27.5	27.5	27.5	91	25.2	0	1	338	0.00	30.004 
07:35	27.5	27.5	27.5	91	25.2	0	1	0	0.00	30.004 
07:40	27.5	27.5	27.5	91	25.2	0	2	0	0.00	30.004 
07:45	27.3	27.3	27.3	91	25.0	0	1	0	0.00	30.005 
07:50	27.3	27.3	27.3	91	25.0	0	2	0	0.00	30.005 
07:55	27.2	27.2	27.2	90	24.7	0	1	0	0.00	30.005 
08:00	27.0	27.0	27.0	91	24.7	0	0	---	0.00	30.005 
08:05	27.0	27.0	27.0	91	24.7	0	0	---	0.00	30.005 
08:10	27.0	27.0	27.0	91	24.7	0	0	---	0.00	30.005 
08:15	27.0	27.0	27.0	91	24.7	0	1	0	0.00	30.012 
08:20	27.3	27.3	27.3	92	25.3	0	2	0	0.00	30.012 
08:25	27.5	27.5	27.5	92	25.5	0	2	0	0.00	30.012 
08:30	27.8	27.8	27.8	92	25.8	0	2	135	0.00	30.015 
08:35	27.9	27.9	27.9	92	25.9	0	0	---	0.00	30.015 
08:40	28.2	28.2	28.2	92	26.2	0	1	90	0.00	30.015 
08:45	28.4	28.4	28.4	92	26.4	0	1	90	0.00	30.016 
08:50	28.5	28.5	28.5	92	26.5	0	1	180	0.00	30.016 
08:55	28.7	28.7	28.7	92	26.7	0	2	180	0.00	30.016 
09:00	29.0	29.0	29.0	91	26.7	0	1	180	0.00	30.017 
09:05	29.1	29.1	29.1	91	26.8	0	2	225	0.00	30.017 
09:10	29.3	29.3	29.3	90	26.7	0	3	315	0.00	30.017 
09:15	29.5	29.5	29.5	89	26.7	0	1	315	0.00	30.018 
09:20	29.7	29.7	29.7	88	26.6	0	2	315	0.00	30.018 
09:25	29.8	29.8	29.8	88	26.7	0	2	338	0.00	30.018 
09:30	30.1	30.1	30.1	88	27.0	0	1	338	0.00	30.018 
09:35	30.3	30.3	30.3	87	26.9	0	1	338	0.00	30.018 
09:40	30.4	30.4	30.4	86	26.7	0	2	338	0.00	30.018 
09:45	30.6	30.6	30.6	86	26.9	1	2	22	0.00	30.015 
09:50	30.9	30.9	30.9	85	26.9	1	2	22	0.00	30.015 
09:55	31.0	31.0	31.0	84	26.7	1	3	45	0.00	30.015 
10:00	31.0	31.0	31.0	84	26.7	1	3	45	0.00	30.013 
10:05	31.2	31.2	31.2	84	26.9	1	4	45	0.00	30.013 
10:10	31.2	31.2	31.2	84	26.9	1	4	112	0.00	30.013 
10:15	31.2	31.2	31.2	83	26.6	1	5	90	0.00	30.013 
10:20	31.2	31.2	31.2	84	26.9	1	5	90	0.00	30.013 
10:25	31.5	31.5	31.5	83	26.9	2	5	112	0.00	30.013 
10:30	31.9	31.9	31.9	84	27.6	1	4	90	0.00	30.012 
10:35	32.2	32.2	32.2	82	27.3	2	6	112	0.00	30.012 
10:40	32.2	32.2	32.2	81	27.0	2	5	90	0.00	30.012 
10:45	32.4	32.4	32.4	81	27.2	1	4	45	0.00	30.013 
10:50	32.4	32.4	32.4	80	26.9	2	3	112	0.00	30.013 
10:55	32.4	32.4	32.4	80	26.9	0	2	68	0.00	30.013 
11:00	32.4	32.4	32.4	79	26.6	1	3	112	0.00	30.014 
11:05	32.5	32.5	32.5	79	26.7	0	2	112	0.00	30.014 
11:10	32.5	32.5	32.5	78	26.4	1	3	90	0.00	30.014 
11:15	32.7	32.7	32.7	78	26.6	0	2	22	0.00	30.013 
11:20	32.8	32.8	32.8	78	26.7	0	2	0	0.00	30.013 
11:25	32.9	32.9	32.9	77	26.5	1	2	45	0.00	30.013 
11:30	32.9	32.9	32.9	76	26.2	1	3	68	0.00	30.011 
11:35	32.9	32.9	32.9	76	26.2	2	4	112	0.00	30.011 
11:40	32.9	32.9	32.9	76	26.2	1	3	90	0.00	30.011 
11:45	33.1	33.1	33.1	75	26.1	1	3	45	0.00	30.011 
11:50	33.2	33.2	33.2	74	25.8	1	3	45	0.00	30.011 
11:55	33.2	33.2	33.2	75	26.2	1	4	112	0.00	30.011 
12:00	33.4	33.4	33.4	75	26.3	0	2	22	0.00	30.010 
12:05	33.5	33.5	33.5	76	26.8	1	2	22	0.00	30.010 
12:10	33.4	33.4	33.4	77	27.0	1	2	45	0.00	30.010 
12:15	33.5	33.5	33.5	77	27.1	0	2	45	0.00	30.001 
12:20	33.5	33.5	33.5	77	27.1	1	3	45	0.00	30.001 
12:25	33.5	33.5	33.5	78	27.4	0	2	22	0.00	30.001 
12:30	33.7	33.7	33.7	78	27.6	1	3	90	0.00	29.996 
12:35	33.8	33.8	33.8	75	26.7	1	3	0	0.00	29.996 
12:40	34.0	34.0	34.0	74	26.6	1	3	90	0.00	29.996 
12:45	34.1	34.1	34.1	74	26.7	2	5	90	0.00	29.987 
12:50	34.3	34.3	34.3	74	26.9	2	4	90	0.00	29.987 
12:55	34.7	34.7	34.7	71	26.3	1	6	90	0.00	29.987 
13:00	34.7	34.7	34.7	73	26.9	2	7	68	0.00	29.982 
13:05	35.0	35.0	35.0	71	26.6	1	4	22	0.00	29.982 
13:10	35.3	35.3	35.3	71	26.9	1	3	338	0.00	29.982 
13:15	35.3	35.3	35.3	69	26.2	1	4	45	0.00	29.978 
13:20	35.3	35.3	35.3	69	26.2	1	3	90	0.00	29.978 
13:25	35.5	35.5	35.5	69	26.4	0	2	112	0.00	29.978 
13:30	35.3	35.3	35.3	69	26.2	0	2	45	0.00	29.968 
13:35	35.3	35.3	35.3	68	25.8	1	3	45	0.00	29.968 
13:40	35.5	35.5	35.5	69	26.4	1	3	45	0.00	29.968 
13:45	35.3	35.3	35.3	67	25.5	0	2	22	0.00	29.966 
13:50	35.2	35.2	35.2	72	27.1	1	2	45	0.00	29.966 
13:55	34.7	34.7	34.7	74	27.3	1	2	45	0.00	29.966 
14:00	34.3	34.3	34.3	77	27.9	1	3	45	0.00	29.967 
14:05	33.8	33.8	33.8	77	27.4	1	3	315	0.00	29.967 
14:10	33.4	33.4	33.4	78	27.3	1	5	45	0.00	29.967 
14:15	32.9	32.9	32.9	80	27.4	1	5	45	0.00	29.962 
14:20	32.5	32.5	32.5	82	27.6	1	3	22	0.00	29.962 
14:25	32.2	32.2	32.2	84	27.9	0	2	22	0.00	29.962 
14:30	32.1	32.1	32.1	83	27.5	1	3	22	0.00	29.959 
14:35	32.1	32.1	32.1	84	27.8	0	2	45	0.00	29.959 
14:40	31.9	31.9	31.9	84	27.6	0	2	45	0.00	29.959 
14:45	31.9	31.9	31.9	85	27.9	0	2	45	0.00	29.958 
14:50	31.9	31.9	31.9	85	27.9	0	2	45	0.00	29.958 
14:55	31.9	31.9	31.9	86	28.2	0	2	45	0.00	29.958 
15:00	31.9	31.9	31.9	86	28.2	0	2	22	0.00	29.957 
15:05	31.8	31.8	31.8	87	28.4	0	1	315	0.00	29.957 
15:10	31.5	31.5	31.5	87	28.1	0	1	315	0.00	29.957 
15:15	31.5	31.5	31.5	88	28.4	0	1	315	0.00	29.956 
15:20	31.3	31.3	31.3	88	28.2	0	1	315	0.00	29.956 
15:25	31.3	31.3	31.3	88	28.2	0	2	315	0.00	29.956 
15:30	31.3	31.3	31.3	88	28.2	0	2	22	0.00	29.953 
15:35	31.2	31.2	31.2	87	27.8	0	1	22	0.00	29.953 
15:40	31.2	31.2	31.2	87	27.8	0	1	22	0.00	29.953 
15:45	31.0	31.0	31.0	88	27.9	0	2	45	0.00	29.952 
15:50	31.0	31.0	31.0	88	27.9	0	1	22	0.00	29.952 
15:55	31.2	31.2	31.2	88	28.1	0	1	22	0.00	29.952 
16:00	31.2	31.2	31.2	88	28.1	0	1	22	0.00	29.948 
16:05	31.3	31.3	31.3	88	28.2	0	1	22	0.00	29.948 
16:10	31.3	31.3	31.3	88	28.2	0	1	22	0.00	29.948 
16:15	31.6	31.6	31.6	88	28.5	0	2	22	0.00	29.945 
16:20	31.8	31.8	31.8	88	28.7	0	1	22	0.00	29.945 
16:25	31.8	31.8	31.8	88	28.7	0	1	22	0.00	29.945 
16:30	31.9	31.9	31.9	87	28.5	0	1	22	0.00	29.942 
16:35	32.1	32.1	32.1	87	28.7	0	1	22	0.00	29.942 
16:40	32.2	32.2	32.2	86	28.5	0	2	68	0.00	29.942 
16:45	32.1	32.1	32.1	86	28.4	0	1	68	0.00	29.939 
16:50	32.2	32.2	32.2	86	28.5	0	1	68	0.00	29.939 
16:55	32.2	32.2	32.2	85	28.2	0	2	45	0.00	29.939 
17:00	32.1	32.1	32.1	85	28.1	0	2	45	0.00	29.940 
17:05	32.1	32.1	32.1	85	28.1	1	3	90	0.00	29.940 
17:10	32.1	32.1	32.1	84	27.8	0	1	90	0.00	29.940 
17:15	32.1	32.1	32.1	84	27.8	0	2	68	0.00	29.939 
17:20	31.9	31.9	31.9	84	27.6	0	1	68	0.00	29.939 
17:25	31.9	31.9	31.9	84	27.6	0	1	68	0.00	29.939 
17:30	31.9	31.9	31.9	83	27.3	0	1	68	0.00	29.938 
17:35	31.8	31.8	31.8	83	27.2	0	1	68	0.00	29.938 
17:40	31.8	31.8	31.8	82	26.9	0	3	0	0.00	29.938 
17:45	31.8	31.8	31.8	82	26.9	0	2	45	0.00	29.939 
17:50	31.6	31.6	31.6	83	27.0	0	2	45	0.00	29.939 
17:55	31.5	31.5	31.5	82	26.7	1	3	0	0.00	29.939 
18:00	31.3	31.3	31.3	83	26.7	0	3	292	0.00	29.940 
18:05	31.2	31.2	31.2	84	26.9	0	2	338	0.00	29.940 
18:10	30.9	30.9	30.9	84	26.6	1	3	338	0.00	29.940 
18:15	30.9	30.9	30.9	85	26.9	0	2	338	0.00	29.947 
18:20	30.7	30.7	30.7	86	27.0	0	2	292	0.00	29.947 
18:25	30.6	30.6	30.6	87	27.2	0	1	315	0.00	29.947 
18:30	30.4	30.4	30.4	87	27.0	0	1	315	0.00	29.946 
18:35	30.3	30.3	30.3	87	26.9	1	3	338	0.00	29.946 
18:40	30.3	30.3	30.3	87	26.9	0	1	338	0.00	29.946 
18:45	30.1	30.1	30.1	88	27.0	0	3	0	0.00	29.944 
18:50	30.1	30.1	30.1	88	27.0	0	3	45	0.00	29.944 
18:55	30.1	30.1	30.1	88	27.0	0	2	45	0.00	29.944 
19:00	30.1	30.1	30.1	88	27.0	1	4	45	0.00	29.948 
19:05	29.8	29.8	29.8	87	26.4	2	5	68	0.00	29.948 
19:10	29.5	29.5	29.5	87	26.1	2	5	68	0.00	29.948 
19:15	29.4	29.4	29.4	87	26.0	1	4	68	0.00	29.955 
19:20	29.3	29.3	29.3	88	26.2	1	4	68	0.00	29.955 
19:25	29.3	29.3	29.3	88	26.2	1	3	90	0.00	29.955 
19:30	29.1	29.1	29.1	88	26.0	1	3	68	0.00	29.957 
19:35	29.1	29.1	29.1	88	26.0	1	3	112	0.00	29.957 
19:40	29.1	29.1	29.1	88	26.0	1	3	68	0.00	29.957 
19:45	29.1	29.1	29.1	88	26.0	2	4	90	0.00	29.959 
19:50	29.1	29.1	29.1	88	26.0	2	5	112	0.01	29.959 
19:55	29.1	29.1	29.1	86	25.4	2	7	90	0.00	29.959 
20:00	29.0	29.0	29.0	84	24.8	2	6	90	0.00	29.960 
20:05	28.8	28.8	28.8	84	24.6	2	4	68	0.00	29.960 
20:10	28.8	28.8	28.8	84	24.6	1	3	68	0.00	29.960 
20:15	28.8	28.8	28.8	85	24.9	2	6	68	0.00	29.961 
20:20	28.7	28.7	28.7	85	24.8	2	5	112	0.00	29.961 
20:25	28.5	28.5	28.5	86	24.9	1	6	90	0.00	29.961 
20:30	28.4	28.4	28.4	88	25.3	2	6	112	0.00	29.960 
20:35	28.2	28.2	28.2	88	25.1	1	3	68	0.00	29.960 
20:40	27.9	27.9	27.9	87	24.5	2	4	22	0.00	29.960 
20:45	27.9	27.9	27.9	88	24.8	1	3	90	0.00	29.960 
20:50	27.9	27.9	27.9	88	24.8	1	3	68	0.00	29.960 
20:55	27.9	27.9	27.9	88	24.8	1	3	68	0.00	29.960 
21:00	27.8	27.8	27.8	87	24.4	2	5	112	0.00	29.959 
21:05	27.8	27.8	27.8	86	24.2	1	3	112	0.00	29.959 
21:10	27.6	27.6	27.6	86	24.0	1	2	68	0.00	29.959 
21:15	27.6	27.6	27.6	86	24.0	1	3	135	0.00	29.965 
21:20	27.6	27.6	27.6	86	24.0	1	3	68	0.00	29.965 
21:25	27.6	27.6	27.6	85	23.7	1	4	0	0.00	29.965 
21:30	27.6	27.6	27.6	86	24.0	0	2	22	0.00	29.969 
21:35	27.6	27.6	27.6	85	23.7	2	4	112	0.00	29.969 
21:40	27.6	27.6	27.6	85	23.7	1	3	68	0.00	29.969 
21:45	27.6	27.6	27.6	85	23.7	0	2	68	0.00	29.970 
21:50	27.6	27.6	27.6	85	23.7	1	3	90	0.00	29.970 
21:55	27.6	27.6	27.6	86	24.0	1	2	45	0.00	29.970 
22:00	27.6	27.6	27.6	86	24.0	0	1	45	0.00	29.972 
22:05	27.5	27.5	27.5	86	23.9	0	2	45	0.00	29.972 
22:10	27.5	27.5	27.5	86	23.9	0	2	45	0.00	29.972 
22:15	27.3	27.3	27.3	86	23.7	0	2	68	0.00	29.972 
22:20	27.3	27.3	27.3	86	23.7	0	2	68	0.00	29.972 
22:25	27.2	27.2	27.2	85	23.3	1	3	112	0.00	29.972 
22:30	27.0	27.0	27.0	84	22.8	1	3	45	0.00	29.973 
22:35	26.9	26.9	26.9	85	23.0	1	2	68	0.00	29.973 
22:40	26.7	26.7	26.7	85	22.8	1	3	45	0.00	29.973 
22:45	26.7	26.7	26.7	85	22.8	0	2	135	0.00	29.972 
22:50	26.7	26.7	26.7	83	22.2	1	3	90	0.00	29.972 
22:55	26.7	26.7	26.7	81	21.7	2	6	45	0.00	29.972 
23:00	26.7	26.7	26.7	81	21.7	1	4	22	0.00	29.970 
23:05	26.6	26.6	26.6	81	21.6	1	3	22	0.00	29.970 
23:10	26.6	26.6	26.6	82	21.9	1	4	112	0.00	29.970 
23:15	26.6	26.6	26.6	83	22.1	1	3	45	0.00	29.968 
23:20	26.4	26.4	26.4	84	22.2	0	2	90	0.00	29.968 
23:25	26.3	26.3	26.3	84	22.1	1	2	112	0.00	29.968 
23:30	26.3	26.3	26.3	84	22.1	1	3	112	0.00	29.967 
23:35	26.1	26.1	26.1	85	22.2	0	4	68	0.00	29.967 
23:40	26.0	26.0	26.0	85	22.1	0	1	45	0.00	29.967 
23:45	26.0	26.0	26.0	86	22.4	0	1	45	0.00	29.967 
23:50	26.0	26.0	26.0	86	22.4	0	1	68	0.00	29.967 
23:55	26.0	26.0	26.0	86	22.4	0	1	68	0.00	29.967 

CoCoRaHS
IN-AL-39
A2 Web Hosting
Creative Commons License
GoDaddy
Look for:

loaded 2017-12-13 02:25:59 • last modified 2010-11-18 10:43:29
Privacy PolicyDisclaimer
• wx.awcolley.com is powered by PmWiki v.2002016 •
• all content (unless otherwise noted) © 2017 A W Colley